createdAt,value
2022-08-05T00:01:35.853Z,25.20
2022-08-05T00:04:19.173Z,24.80
2022-08-05T00:06:47.560Z,24.80
2022-08-05T00:09:20.424Z,24.80
2022-08-05T00:11:55.361Z,24.30
2022-08-05T00:14:27.845Z,24.40
2022-08-05T00:17:02.039Z,24.40
2022-08-05T00:19:33.206Z,24.30
2022-08-05T00:22:11.357Z,24.10
2022-08-05T00:24:42.463Z,24.20
2022-08-05T00:27:16.585Z,24.30
2022-08-05T00:29:45.129Z,23.90
2022-08-05T00:32:15.288Z,23.00
2022-08-05T00:35:03.619Z,22.70
2022-08-05T00:37:35.507Z,22.70
2022-08-05T00:40:27.252Z,22.80
2022-08-05T00:42:58.715Z,22.90
2022-08-05T00:45:38.848Z,23.20
2022-08-05T00:48:10.213Z,23.00
2022-08-05T00:50:39.582Z,22.50
2022-08-05T00:53:45.037Z,22.50
2022-08-05T00:55:58.683Z,22.30
2022-08-05T00:58:27.506Z,22.40
2022-08-05T01:01:00.943Z,22.50
2022-08-05T01:03:33.423Z,22.70
2022-08-05T01:06:05.435Z,22.60
2022-08-05T01:08:42.632Z,22.60
2022-08-05T01:11:22.258Z,22.60
2022-08-05T01:14:08.848Z,22.40
2022-08-05T01:16:44.525Z,22.30
2022-08-05T01:19:56.862Z,22.20
2022-08-05T01:22:34.182Z,22.40
2022-08-05T01:25:40.152Z,22.40
2022-08-05T01:28:28.643Z,22.50
2022-08-05T01:31:03.145Z,22.70
2022-08-05T01:33:36.658Z,22.80
2022-08-05T01:36:16.241Z,22.70
2022-08-05T01:38:48.501Z,22.70
2022-08-05T01:41:22.576Z,22.80
2022-08-05T01:43:58.080Z,22.70
2022-08-05T01:46:42.716Z,22.70
2022-08-05T01:49:22.955Z,22.60
2022-08-05T01:51:58.900Z,22.70
2022-08-05T01:54:33.276Z,22.60
2022-08-05T01:58:11.438Z,22.60
2022-08-05T01:59:55.872Z,22.60
2022-08-05T02:02:30.612Z,22.60
2022-08-05T02:05:05.608Z,22.50
2022-08-05T02:07:43.002Z,22.70
2022-08-05T02:10:28.715Z,22.60
2022-08-05T02:13:02.494Z,22.30
2022-08-05T02:15:43.083Z,22.30
2022-08-05T02:18:32.403Z,22.40
2022-08-05T02:21:13.249Z,22.50
2022-08-05T02:23:46.104Z,22.40
2022-08-05T02:26:22.349Z,22.40
2022-08-05T02:28:51.768Z,22.30
2022-08-05T02:31:28.408Z,22.20
2022-08-05T02:34:00.706Z,22.30
2022-08-05T02:36:31.634Z,22.30
2022-08-05T02:39:03.111Z,22.30
2022-08-05T02:41:36.382Z,22.40
2022-08-05T02:44:13.825Z,22.50
2022-08-05T02:46:58.692Z,22.40
2022-08-05T02:49:36.852Z,22.30
2022-08-05T02:52:09.274Z,22.50
2022-08-05T02:54:41.232Z,22.70
2022-08-05T02:58:11.822Z,22.60
2022-08-05T03:00:01.383Z,22.50
2022-08-05T03:02:36.106Z,22.50
2022-08-05T03:05:06.109Z,22.50
2022-08-05T03:07:59.392Z,22.50
2022-08-05T03:10:25.655Z,22.50
2022-08-05T03:12:55.019Z,22.50
2022-08-05T03:15:24.325Z,22.50
2022-08-05T03:17:57.624Z,22.40
2022-08-05T03:20:29.150Z,22.30
2022-08-05T03:22:58.073Z,22.30
2022-08-05T03:25:33.587Z,22.30
2022-08-05T03:28:18.849Z,22.10
2022-08-05T03:30:50.920Z,22.20
2022-08-05T03:33:20.671Z,22.40
2022-08-05T03:35:51.801Z,22.50
2022-08-05T03:38:32.607Z,22.60
2022-08-05T03:41:08.500Z,22.70
2022-08-05T03:44:09.597Z,22.80
2022-08-05T03:46:32.582Z,22.80
2022-08-05T03:49:02.332Z,22.90
2022-08-05T03:52:50.307Z,22.90
2022-08-05T03:55:50.310Z,22.90
2022-08-05T03:57:42.470Z,23.10
2022-08-05T04:00:16.260Z,23.00
2022-08-05T04:02:58.035Z,23.10
2022-08-05T04:05:33.401Z,23.10
2022-08-05T04:08:14.532Z,23.20
2022-08-05T04:10:44.784Z,23.20
2022-08-05T04:13:18.282Z,23.10
2022-08-05T04:16:03.124Z,23.10
2022-08-05T04:18:34.444Z,23.10
2022-08-05T04:21:11.089Z,23.00
2022-08-05T04:24:06.235Z,23.00
2022-08-05T04:26:32.529Z,23.10
2022-08-05T04:29:00.858Z,23.10
2022-08-05T04:31:38.707Z,23.00
2022-08-05T04:34:31.944Z,22.80
2022-08-05T04:36:57.336Z,22.70
2022-08-05T04:39:27.944Z,22.60
2022-08-05T04:41:56.415Z,22.50
2022-08-05T04:44:29.276Z,22.40
2022-08-05T04:46:59.290Z,22.30
2022-08-05T04:49:38.823Z,22.30
2022-08-05T04:52:17.610Z,22.50
2022-08-05T04:54:47.206Z,22.40
2022-08-05T04:57:17.737Z,22.50
2022-08-05T04:59:48.163Z,22.60
2022-08-05T05:02:41.353Z,22.60
2022-08-05T05:05:16.805Z,22.50
2022-08-05T05:08:02.637Z,22.40
2022-08-05T05:10:33.420Z,22.20
2022-08-05T05:13:04.749Z,22.10
2022-08-05T05:15:59.333Z,22.10
2022-08-05T05:18:31.250Z,22.40
2022-08-05T05:21:04.311Z,22.60
2022-08-05T05:23:39.041Z,22.50
2022-08-05T05:26:28.112Z,22.40
2022-08-05T05:28:57.261Z,22.60
2022-08-05T05:31:25.579Z,22.60
2022-08-05T05:34:02.143Z,22.90
2022-08-05T05:36:32.192Z,22.90
2022-08-05T05:39:04.462Z,22.90
2022-08-05T05:41:40.514Z,22.90
2022-08-05T05:44:35.485Z,23.00
2022-08-05T05:47:04.361Z,23.10
2022-08-05T05:49:41.529Z,23.10
2022-08-05T05:52:13.013Z,23.10
2022-08-05T05:54:59.817Z,23.20
2022-08-05T05:57:52.300Z,23.30
2022-08-05T06:00:18.522Z,23.50
2022-08-05T06:02:48.240Z,23.50
2022-08-05T06:05:20.435Z,23.20
2022-08-05T06:07:57.845Z,23.10
2022-08-05T06:10:36.253Z,23.00
2022-08-05T06:13:05.958Z,23.10
2022-08-05T06:16:30.494Z,23.10
2022-08-05T06:18:31.040Z,23.10
2022-08-05T06:21:00.570Z,23.10
2022-08-05T06:23:43.678Z,23.20
2022-08-05T06:26:21.367Z,23.20
2022-08-05T06:28:52.206Z,23.20
2022-08-05T06:31:21.966Z,23.30
2022-08-05T06:34:07.509Z,23.40
2022-08-05T06:36:56.882Z,23.70
2022-08-05T06:39:27.243Z,23.60
2022-08-05T06:42:04.186Z,23.70
2022-08-05T06:44:33.211Z,23.20
2022-08-05T06:47:02.430Z,22.30
2022-08-05T06:50:01.421Z,22.30
2022-08-05T06:52:36.693Z,22.70
2022-08-05T06:55:09.832Z,22.70
2022-08-05T06:57:57.464Z,22.50
2022-08-05T07:00:29.819Z,22.60
2022-08-05T07:03:00.699Z,22.70
2022-08-05T07:05:37.766Z,22.80
2022-08-05T07:08:10.683Z,22.70
2022-08-05T07:10:53.151Z,22.80
2022-08-05T07:13:58.161Z,23.10
2022-08-05T07:17:59.876Z,23.20
2022-08-05T07:22:36.973Z,23.40
2022-08-05T07:25:22.833Z,23.40
2022-08-05T07:28:05.726Z,23.40
2022-08-05T07:30:39.126Z,23.60
2022-08-05T07:33:10.584Z,23.70
2022-08-05T07:36:05.059Z,23.60
2022-08-05T07:38:34.993Z,23.60
2022-08-05T07:42:08.073Z,23.70
2022-08-05T07:44:02.933Z,23.70
2022-08-05T07:46:34.548Z,23.60
2022-08-05T07:49:07.730Z,23.50
2022-08-05T07:51:40.680Z,23.60
2022-08-05T07:54:19.219Z,23.70
2022-08-05T07:57:13.531Z,23.70
2022-08-05T07:59:40.455Z,23.80
2022-08-05T08:02:15.742Z,24.10
2022-08-05T08:04:49.856Z,24.10
2022-08-05T08:07:22.202Z,24.00
2022-08-05T08:09:54.903Z,24.10
2022-08-05T08:12:35.287Z,24.30
2022-08-05T08:15:15.830Z,24.40
2022-08-05T08:17:53.058Z,24.40
2022-08-05T08:20:59.819Z,24.20
2022-08-05T08:24:03.356Z,24.30
2022-08-05T08:26:02.634Z,24.20
2022-08-05T08:28:36.239Z,24.30
2022-08-05T08:31:14.961Z,24.40
2022-08-05T08:33:51.558Z,24.40
2022-08-05T08:36:38.989Z,24.60
2022-08-05T08:39:15.767Z,24.70
2022-08-05T08:41:50.806Z,24.60
2022-08-05T08:45:17.009Z,24.60
2022-08-05T08:47:22.294Z,24.70
2022-08-05T08:50:30.340Z,25.20
2022-08-05T08:52:55.885Z,24.90
2022-08-05T08:56:04.183Z,24.80
2022-08-05T08:58:26.176Z,24.40
2022-08-05T09:01:15.423Z,24.40
2022-08-05T09:03:48.175Z,24.80
2022-08-05T09:06:24.297Z,24.90
2022-08-05T09:08:57.127Z,24.50
2022-08-05T09:11:50.983Z,24.30
2022-08-05T09:14:56.372Z,24.30
2022-08-05T09:17:09.375Z,24.50
2022-08-05T09:19:55.131Z,24.30
2022-08-05T09:22:31.389Z,24.30
2022-08-05T09:25:13.781Z,24.40
2022-08-05T09:28:05.252Z,24.60
2022-08-05T09:30:35.765Z,24.60
2022-08-05T09:33:07.404Z,24.20
2022-08-05T09:35:41.770Z,24.30
2022-08-05T09:38:18.345Z,24.70
2022-08-05T09:40:56.684Z,24.80
2022-08-05T09:43:41.903Z,25.10
2022-08-05T09:46:28.053Z,25.20
2022-08-05T09:49:06.961Z,25.30
2022-08-05T09:51:39.872Z,25.20
2022-08-05T09:54:11.331Z,25.40
2022-08-05T09:56:40.539Z,25.20
2022-08-05T09:59:27.592Z,24.90
2022-08-05T10:01:58.336Z,24.90
2022-08-05T10:04:38.567Z,24.80
2022-08-05T10:07:31.893Z,25.10
2022-08-05T10:10:14.363Z,24.90
2022-08-05T10:12:53.568Z,24.90
2022-08-05T10:15:26.645Z,24.90
2022-08-05T10:18:10.983Z,24.80
2022-08-05T10:20:42.882Z,25.10
2022-08-05T10:23:34.048Z,25.30
2022-08-05T10:26:07.353Z,25.30
2022-08-05T10:28:42.811Z,25.00
2022-08-05T10:32:49.069Z,24.90
2022-08-05T10:34:02.239Z,25.10
2022-08-05T10:36:33.809Z,25.10
2022-08-05T10:39:11.903Z,25.20
2022-08-05T10:41:56.751Z,25.30
2022-08-05T10:44:29.078Z,25.50
2022-08-05T10:46:59.601Z,25.40
2022-08-05T10:49:33.356Z,24.70
2022-08-05T10:52:49.570Z,24.70
2022-08-05T10:55:20.894Z,25.40
2022-08-05T10:57:51.335Z,24.90
2022-08-05T11:00:23.249Z,25.00
2022-08-05T11:03:23.193Z,25.10
2022-08-05T11:06:15.006Z,25.10
2022-08-05T11:09:17.064Z,25.30
2022-08-05T11:11:52.725Z,25.10
2022-08-05T11:14:57.479Z,25.20
2022-08-05T11:18:00.053Z,25.30
2022-08-05T11:20:44.271Z,25.50
2022-08-05T11:24:02.644Z,25.60
2022-08-05T11:26:29.268Z,25.50
2022-08-05T11:29:11.799Z,25.30
2022-08-05T11:31:57.909Z,25.20
2022-08-05T11:34:51.575Z,25.20
2022-08-05T11:38:36.875Z,25.30
2022-08-05T11:41:14.169Z,25.90
2022-08-05T11:44:05.640Z,26.50
2022-08-05T11:46:38.005Z,26.10
2022-08-05T11:49:33.850Z,25.90
2022-08-05T11:52:08.822Z,26.20
2022-08-05T11:54:41.681Z,25.90
2022-08-05T11:57:25.599Z,25.80
2022-08-05T11:59:54.654Z,26.00
2022-08-05T12:02:31.999Z,25.70
2022-08-05T12:05:07.054Z,25.50
2022-08-05T12:08:08.073Z,25.60
2022-08-05T12:10:42.926Z,25.60
2022-08-05T12:13:28.119Z,25.20
2022-08-05T12:16:15.380Z,25.20
2022-08-05T12:18:52.766Z,25.30
2022-08-05T12:21:26.965Z,25.50
2022-08-05T12:24:05.091Z,25.40
2022-08-05T12:26:36.416Z,25.60
2022-08-05T12:29:09.866Z,25.80
2022-08-05T12:31:53.004Z,25.80
2022-08-05T12:34:26.737Z,25.90
2022-08-05T12:37:00.929Z,25.50
2022-08-05T12:39:37.469Z,25.50
2022-08-05T12:42:14.908Z,25.70
2022-08-05T12:44:49.638Z,25.80
2022-08-05T12:47:30.479Z,25.60
2022-08-05T12:50:06.184Z,25.30
2022-08-05T12:52:39.663Z,25.30
2022-08-05T12:55:25.493Z,25.20
2022-08-05T12:58:38.274Z,25.40
2022-08-05T13:02:00.871Z,25.30
2022-08-05T13:03:39.090Z,25.50
2022-08-05T13:06:16.041Z,25.70
2022-08-05T13:08:51.920Z,25.30
2022-08-05T13:12:01.179Z,25.20
2022-08-05T13:14:35.906Z,25.20
2022-08-05T13:17:10.153Z,25.20
2022-08-05T13:19:52.120Z,25.10
2022-08-05T13:22:28.392Z,24.90
2022-08-05T13:25:05.111Z,24.80
